createdAt,value
2017-01-14T00:00:02.246Z,38.99
2017-01-14T00:00:42.918Z,38.7
2017-01-14T00:01:23.632Z,38.6
2017-01-14T00:02:04.284Z,38.6
2017-01-14T00:02:44.931Z,38.79
2017-01-14T00:03:25.579Z,38.7
2017-01-14T00:04:06.215Z,38.79
2017-01-14T00:04:46.841Z,38.7
2017-01-14T00:05:27.520Z,38.7
2017-01-14T00:06:08.857Z,38.7
2017-01-14T00:06:49.498Z,38.79
2017-01-14T00:07:30.182Z,38.7
2017-01-14T00:08:10.810Z,38.99
2017-01-14T00:08:51.442Z,38.89
2017-01-14T00:09:32.183Z,38.79
2017-01-14T00:10:12.855Z,38.79
2017-01-14T00:10:53.537Z,38.89
2017-01-14T00:11:34.263Z,38.7
2017-01-14T00:12:14.994Z,38.79
2017-01-14T00:12:55.631Z,38.99
2017-01-14T00:13:36.264Z,38.7
2017-01-14T00:14:16.977Z,38.7
2017-01-14T00:14:57.629Z,38.6
2017-01-14T00:15:38.273Z,38.7
2017-01-14T00:16:18.940Z,38.7
2017-01-14T00:16:59.568Z,38.7
2017-01-14T00:17:40.203Z,38.89
2017-01-14T00:18:20.861Z,38.6
2017-01-14T00:19:01.490Z,38.7
2017-01-14T00:19:42.209Z,38.89
2017-01-14T00:20:22.854Z,38.7
2017-01-14T00:21:03.587Z,38.6
2017-01-14T00:21:44.256Z,38.7
2017-01-14T00:22:24.898Z,38.6
2017-01-14T00:23:05.630Z,38.99
2017-01-14T00:23:46.274Z,38.7
2017-01-14T00:24:26.924Z,38.7
2017-01-14T00:25:07.594Z,38.7
2017-01-14T00:25:48.224Z,38.7
2017-01-14T00:26:28.866Z,38.7
2017-01-14T00:27:09.503Z,38.7
2017-01-14T00:27:50.133Z,38.7
2017-01-14T00:28:30.827Z,38.7
2017-01-14T00:29:11.464Z,38.7
2017-01-14T00:29:52.117Z,38.7
2017-01-14T00:30:32.791Z,38.6
2017-01-14T00:31:13.485Z,38.51
2017-01-14T00:31:54.130Z,38.6
2017-01-14T00:32:34.774Z,38.7
2017-01-14T00:33:15.424Z,38.89
2017-01-14T00:33:56.067Z,38.79
2017-01-14T00:34:36.697Z,38.89
2017-01-14T00:35:17.435Z,38.79
2017-01-14T00:35:58.155Z,38.99
2017-01-14T00:36:38.795Z,38.99
2017-01-14T00:37:19.421Z,38.89
2017-01-14T00:38:00.083Z,38.87
2017-01-14T00:38:40.715Z,38.96
2017-01-14T00:39:21.346Z,38.87
2017-01-14T00:40:01.991Z,38.89
2017-01-14T00:40:42.635Z,38.79
2017-01-14T00:41:23.276Z,38.7
2017-01-14T00:42:03.905Z,38.79
2017-01-14T00:42:44.535Z,38.51
2017-01-14T00:43:25.214Z,38.32
2017-01-14T00:44:05.920Z,38.7
2017-01-14T00:44:46.574Z,38.41
2017-01-14T00:45:27.210Z,38.32
2017-01-14T00:46:07.876Z,38.41
2017-01-14T00:46:48.515Z,38.79
2017-01-14T00:47:29.152Z,38.22
2017-01-14T00:48:09.815Z,38.51
2017-01-14T00:48:50.477Z,38.41
2017-01-14T00:49:31.115Z,38.41
2017-01-14T00:50:11.799Z,38.51
2017-01-14T00:50:52.477Z,38.32
2017-01-14T00:51:33.126Z,38.39
2017-01-14T00:52:13.828Z,38.12
2017-01-14T00:52:54.456Z,38.12
2017-01-14T00:53:35.094Z,38.41
2017-01-14T00:54:15.802Z,37.82
2017-01-14T00:54:56.496Z,38.22
2017-01-14T00:55:37.164Z,38.2
2017-01-14T00:56:17.809Z,38.2
2017-01-14T00:56:58.461Z,38.22
2017-01-14T00:57:39.090Z,38.32
2017-01-14T00:58:19.717Z,38.1
2017-01-14T00:59:00.383Z,38.29
2017-01-14T00:59:41.056Z,38.2
2017-01-14T01:00:21.683Z,38.2
2017-01-14T01:01:02.384Z,38.01
2017-01-14T01:01:43.101Z,38.1
2017-01-14T01:02:23.745Z,38.22
2017-01-14T01:03:04.450Z,38.12
2017-01-14T01:03:45.153Z,38.2
2017-01-14T01:04:25.813Z,38.2
2017-01-14T01:05:06.460Z,37.72
2017-01-14T01:05:47.193Z,37.53
2017-01-14T01:06:27.859Z,37.62
2017-01-14T01:07:08.494Z,37.55
2017-01-14T01:07:49.129Z,37.72
2017-01-14T01:08:29.784Z,37.53
2017-01-14T01:09:10.420Z,37.53
2017-01-14T01:09:51.141Z,37.43
2017-01-14T01:10:31.777Z,37.62
2017-01-14T01:11:12.407Z,37.43
2017-01-14T01:11:53.103Z,37.05
2017-01-14T01:12:33.858Z,37.34
2017-01-14T01:13:14.520Z,37.24
2017-01-14T01:13:55.149Z,37.24
2017-01-14T01:14:35.837Z,37.43
2017-01-14T01:15:16.462Z,37.24
2017-01-14T01:15:57.117Z,37.24
2017-01-14T01:16:37.804Z,37.15
2017-01-14T01:17:18.470Z,37.24
2017-01-14T01:17:59.112Z,36.76
2017-01-14T01:18:39.778Z,36.86
2017-01-14T01:19:20.414Z,36.86
2017-01-14T01:20:01.040Z,36.76
2017-01-14T01:20:41.739Z,36.68
2017-01-14T01:21:22.465Z,36.86
2017-01-14T01:22:03.116Z,36.76
2017-01-14T01:22:43.765Z,37.05
2017-01-14T01:23:24.481Z,36.86
2017-01-14T01:24:05.169Z,36.95
2017-01-14T01:24:45.806Z,37.05
2017-01-14T01:25:26.535Z,36.66
2017-01-14T01:26:07.172Z,36.86
2017-01-14T01:26:47.814Z,36.95
2017-01-14T01:27:28.488Z,36.86
2017-01-14T01:28:09.192Z,36.38
2017-01-14T01:28:49.945Z,36.76
2017-01-14T01:29:30.593Z,36.57
2017-01-14T01:30:11.253Z,36.47
2017-01-14T01:30:51.881Z,36.57
2017-01-14T01:31:32.512Z,36.57
2017-01-14T01:32:13.207Z,36.47
2017-01-14T01:32:53.854Z,36.38
2017-01-14T01:33:34.493Z,36.38
2017-01-14T01:34:15.168Z,36.47
2017-01-14T01:34:55.802Z,36.38
2017-01-14T01:35:36.436Z,36.47
2017-01-14T01:36:17.144Z,36.57
2017-01-14T01:36:57.868Z,36.38
2017-01-14T01:37:38.551Z,36.76
2017-01-14T01:38:19.180Z,36.57
2017-01-14T01:38:59.896Z,36.28
2017-01-14T01:39:40.607Z,36.47
2017-01-14T01:40:21.236Z,36.38
2017-01-14T01:41:01.919Z,36.47
2017-01-14T01:41:42.644Z,36.47
2017-01-14T01:42:23.302Z,35.89
2017-01-14T01:43:03.951Z,36.28
2017-01-14T01:43:44.673Z,35.89
2017-01-14T01:44:25.304Z,36.09
2017-01-14T01:45:05.943Z,36.09
2017-01-14T01:45:46.636Z,36.18
2017-01-14T01:46:27.333Z,36.28
2017-01-14T01:47:07.974Z,36.18
2017-01-14T01:47:48.666Z,36.28
2017-01-14T01:48:29.397Z,35.8
2017-01-14T01:49:10.031Z,36.18
2017-01-14T01:49:50.676Z,35.89
2017-01-14T01:50:31.329Z,36.28
2017-01-14T01:51:12.055Z,36.28
2017-01-14T01:51:52.708Z,36.18
2017-01-14T01:52:33.426Z,35.61
2017-01-14T01:53:14.139Z,35.8
2017-01-14T01:53:54.770Z,36.09
2017-01-14T01:54:35.398Z,35.89
2017-01-14T01:55:16.097Z,35.89
2017-01-14T01:55:56.725Z,35.89
2017-01-14T01:56:37.394Z,36.18
2017-01-14T01:57:18.052Z,36.38
2017-01-14T01:57:58.777Z,35.71
2017-01-14T01:58:39.426Z,35.99
2017-01-14T01:59:20.078Z,35.8
2017-01-14T02:00:00.817Z,35.99
2017-01-14T02:00:41.450Z,35.99
2017-01-14T02:01:22.168Z,35.8
2017-01-14T02:02:02.848Z,36.28
2017-01-14T02:02:43.494Z,35.99
2017-01-14T02:03:24.128Z,36.28
2017-01-14T02:04:04.782Z,36.09
2017-01-14T02:04:45.415Z,35.99
2017-01-14T02:05:26.053Z,35.89
2017-01-14T02:06:06.720Z,36.09
2017-01-14T02:06:47.379Z,35.99
2017-01-14T02:07:28.008Z,36.18
2017-01-14T02:08:08.707Z,35.99
2017-01-14T02:08:49.337Z,35.89
2017-01-14T02:09:29.969Z,36.18
2017-01-14T02:10:10.663Z,36.28
2017-01-14T02:10:51.301Z,36.38
2017-01-14T02:11:31.940Z,35.99
2017-01-14T02:12:12.592Z,36.38
2017-01-14T02:12:53.293Z,36.18
2017-01-14T02:13:33.920Z,36.09
2017-01-14T02:14:14.633Z,35.89
2017-01-14T02:14:55.339Z,36.38
2017-01-14T02:15:36.056Z,35.89
2017-01-14T02:16:16.701Z,35.99
2017-01-14T02:16:57.396Z,35.89
2017-01-14T02:17:38.122Z,35.71
2017-01-14T02:18:18.755Z,35.71
2017-01-14T02:18:59.412Z,36.09
2017-01-14T02:19:40.042Z,35.71
2017-01-14T02:20:20.672Z,36.18
2017-01-14T02:21:01.351Z,36.09
2017-01-14T02:21:42.057Z,36.09
2017-01-14T02:22:22.732Z,36.28
2017-01-14T02:23:03.358Z,35.8
2017-01-14T02:23:44.010Z,35.99
2017-01-14T02:24:24.642Z,35.71
2017-01-14T02:25:05.267Z,35.99
2017-01-14T02:25:45.991Z,35.89
2017-01-14T02:26:26.680Z,36.28
2017-01-14T02:27:07.311Z,35.8
2017-01-14T02:27:48.009Z,35.71
2017-01-14T02:28:28.649Z,36.18
2017-01-14T02:29:09.281Z,35.99
2017-01-14T02:29:50.012Z,35.89
2017-01-14T02:30:30.714Z,35.99
2017-01-14T02:31:11.365Z,35.8
2017-01-14T02:31:52.016Z,35.99
2017-01-14T02:32:32.678Z,35.71
2017-01-14T02:33:13.345Z,36.38
2017-01-14T02:33:53.965Z,35.99
2017-01-14T02:34:34.668Z,36.09
2017-01-14T02:35:15.343Z,36.28
2017-01-14T02:35:55.975Z,35.8
2017-01-14T02:36:36.620Z,36.28
2017-01-14T02:37:17.367Z,35.89
2017-01-14T02:37:58.002Z,35.89
2017-01-14T02:38:38.664Z,35.99
2017-01-14T02:39:19.380Z,36.38
2017-01-14T02:40:00.025Z,36.09
2017-01-14T02:40:40.674Z,35.71
2017-01-14T02:41:21.430Z,35.71
2017-01-14T02:42:02.126Z,35.89
2017-01-14T02:42:42.752Z,35.71
2017-01-14T02:43:23.423Z,35.61
2017-01-14T02:44:04.047Z,35.89
2017-01-14T02:44:44.687Z,35.89
2017-01-14T02:45:25.371Z,35.99
2017-01-14T02:46:06.094Z,36.28
2017-01-14T02:46:46.749Z,36.09
2017-01-14T02:47:27.397Z,36.38
2017-01-14T02:48:08.052Z,35.99
2017-01-14T02:48:48.680Z,36.18
2017-01-14T02:49:29.310Z,36.18
2017-01-14T02:50:10.177Z,35.89
2017-01-14T02:50:51.353Z,35.99
2017-01-14T02:51:32.274Z,35.99
2017-01-14T02:52:12.984Z,35.89
2017-01-14T02:52:53.805Z,36.18
2017-01-14T02:53:34.760Z,36.28
2017-01-14T02:54:15.458Z,35.8
2017-01-14T02:54:56.036Z,35.99
2017-01-14T02:55:36.719Z,35.89
2017-01-14T02:56:17.354Z,35.89
2017-01-14T02:56:57.992Z,36.18
2017-01-14T02:57:38.659Z,35.89
2017-01-14T02:58:19.291Z,36.09
2017-01-14T02:58:59.918Z,36.18
2017-01-14T02:59:40.583Z,35.99
2017-01-14T03:00:21.267Z,36.28
2017-01-14T03:01:01.919Z,35.61
2017-01-14T03:01:42.617Z,35.8
2017-01-14T03:02:23.242Z,35.71
2017-01-14T03:03:03.872Z,35.8
2017-01-14T03:03:44.552Z,35.99
2017-01-14T03:04:25.185Z,35.71
2017-01-14T03:05:05.820Z,35.8
2017-01-14T03:05:46.493Z,35.8
2017-01-14T03:06:27.212Z,36.28
2017-01-14T03:07:07.841Z,35.99
2017-01-14T03:07:48.485Z,35.89
2017-01-14T03:08:29.251Z,35.71
2017-01-14T03:09:09.912Z,36.28
2017-01-14T03:09:50.539Z,35.89
2017-01-14T03:10:31.237Z,36.28
2017-01-14T03:11:11.865Z,36.28
2017-01-14T03:11:52.500Z,35.99
2017-01-14T03:12:33.191Z,36.09
2017-01-14T03:13:13.900Z,36.09
2017-01-14T03:13:54.528Z,36.09
2017-01-14T03:14:35.227Z,36.09
2017-01-14T03:15:15.933Z,36.09
2017-01-14T03:15:56.608Z,36.28
2017-01-14T03:16:37.239Z,35.99
2017-01-14T03:17:17.962Z,36.28
2017-01-14T03:17:58.586Z,36.28
2017-01-14T03:18:39.209Z,36.38
2017-01-14T03:19:19.907Z,36.28
2017-01-14T03:20:00.570Z,36.18
2017-01-14T03:20:41.205Z,36.09
2017-01-14T03:21:21.899Z,35.61
2017-01-14T03:22:02.605Z,35.71
2017-01-14T03:22:43.252Z,35.99
2017-01-14T03:23:23.927Z,35.8
2017-01-14T03:24:04.615Z,35.61
2017-01-14T03:24:45.346Z,35.89
2017-01-14T03:25:25.990Z,35.99
2017-01-14T03:26:06.648Z,35.71
2017-01-14T03:26:47.272Z,35.89
2017-01-14T03:27:27.899Z,35.89
2017-01-14T03:28:08.578Z,35.89
2017-01-14T03:28:49.211Z,35.71
2017-01-14T03:29:29.842Z,35.8
2017-01-14T03:30:10.501Z,35.71
2017-01-14T03:30:51.188Z,35.8
2017-01-14T03:31:31.819Z,35.8
2017-01-14T03:32:12.502Z,35.8
2017-01-14T03:32:53.128Z,35.89
2017-01-14T03:33:33.758Z,35.89
2017-01-14T03:34:14.450Z,35.61
2017-01-14T03:34:55.159Z,35.8
2017-01-14T03:35:35.828Z,35.89
2017-01-14T03:36:16.478Z,35.51
2017-01-14T03:36:57.195Z,35.8
2017-01-14T03:37:37.818Z,35.61
2017-01-14T03:38:18.442Z,35.71
2017-01-14T03:38:59.129Z,35.42
2017-01-14T03:39:39.785Z,35.51
2017-01-14T03:40:20.409Z,35.42
2017-01-14T03:41:01.082Z,35.42
2017-01-14T03:41:41.764Z,35.32
2017-01-14T03:42:22.395Z,35.42
2017-01-14T03:43:03.074Z,35.32
2017-01-14T03:43:43.758Z,35.13
2017-01-14T03:44:24.390Z,35.13
2017-01-14T03:45:05.041Z,35.32
2017-01-14T03:45:45.731Z,35.22
2017-01-14T03:46:26.413Z,34.94
2017-01-14T03:47:07.065Z,35.13
2017-01-14T03:47:47.790Z,34.84
2017-01-14T03:48:28.462Z,34.75
2017-01-14T03:49:09.092Z,34.94
2017-01-14T03:49:49.802Z,35.03
2017-01-14T03:50:30.434Z,35.03
2017-01-14T03:51:11.071Z,34.65
2017-01-14T03:51:51.757Z,34.84
2017-01-14T03:52:32.479Z,34.84
2017-01-14T03:53:13.131Z,34.84
2017-01-14T03:53:53.771Z,34.55
2017-01-14T03:54:34.505Z,34.84
2017-01-14T03:55:15.184Z,34.94
2017-01-14T03:55:55.822Z,34.94
2017-01-14T03:56:36.529Z,34.45
2017-01-14T03:57:17.167Z,34.94
2017-01-14T03:57:57.798Z,34.82
2017-01-14T03:58:38.489Z,34.73
2017-01-14T03:59:19.214Z,34.63
2017-01-14T03:59:59.862Z,34.84
2017-01-14T04:00:40.507Z,34.84
2017-01-14T04:01:21.269Z,34.82
2017-01-14T04:02:01.905Z,34.63
2017-01-14T04:02:42.533Z,34.75
2017-01-14T04:03:23.195Z,34.84
2017-01-14T04:04:03.832Z,34.94
2017-01-14T04:04:44.465Z,34.65
2017-01-14T04:05:25.186Z,34.65
2017-01-14T04:06:05.821Z,34.65
2017-01-14T04:06:46.444Z,34.84
2017-01-14T04:07:27.140Z,34.53
2017-01-14T04:08:07.847Z,34.55
2017-01-14T04:08:48.516Z,34.53
2017-01-14T04:09:29.160Z,34.53
2017-01-14T04:10:09.883Z,34.07
2017-01-14T04:10:50.562Z,34.63
2017-01-14T04:11:31.213Z,34.65
2017-01-14T04:12:11.917Z,34.45
2017-01-14T04:12:52.555Z,34.53
2017-01-14T04:13:33.189Z,34.55
2017-01-14T04:14:13.902Z,34.44
2017-01-14T04:14:54.620Z,34.25
2017-01-14T04:15:35.367Z,34.55
2017-01-14T04:16:16.009Z,34.44
2017-01-14T04:16:56.732Z,34.44
2017-01-14T04:17:37.407Z,34.34
2017-01-14T04:18:18.035Z,34.53
2017-01-14T04:18:58.665Z,34.15
2017-01-14T04:19:39.391Z,34.53
2017-01-14T04:20:20.060Z,33.96
2017-01-14T04:21:00.696Z,34.15
2017-01-14T04:21:41.342Z,34.06
2017-01-14T04:22:21.975Z,34.34
2017-01-14T04:23:02.603Z,34.15
2017-01-14T04:23:43.279Z,33.77
2017-01-14T04:24:23.949Z,34.15
2017-01-14T04:25:04.575Z,34.06
2017-01-14T04:25:45.269Z,34.53
2017-01-14T04:26:25.945Z,34.15
2017-01-14T04:27:06.592Z,34.06
2017-01-14T04:27:47.297Z,34.15
2017-01-14T04:28:27.925Z,34.15
2017-01-14T04:29:08.564Z,34.34
2017-01-14T04:29:49.262Z,34.44
2017-01-14T04:30:29.963Z,34.44
2017-01-14T04:31:10.641Z,34.34
2017-01-14T04:31:51.264Z,34.53
2017-01-14T04:32:31.992Z,34.44
2017-01-14T04:33:12.669Z,34.15
2017-01-14T04:33:53.318Z,34.06
2017-01-14T04:34:34.016Z,34.15
2017-01-14T04:35:14.645Z,33.96
2017-01-14T04:35:55.276Z,34.25
2017-01-14T04:36:35.941Z,34.06
2017-01-14T04:37:16.583Z,34.15
2017-01-14T04:37:57.217Z,33.96
2017-01-14T04:38:37.927Z,33.86
2017-01-14T04:39:18.622Z,34.25
2017-01-14T04:39:59.277Z,33.86
2017-01-14T04:40:39.926Z,33.86
2017-01-14T04:41:20.674Z,33.77
2017-01-14T04:42:01.331Z,33.86
2017-01-14T04:42:41.960Z,33.77
2017-01-14T04:43:22.673Z,33.86
2017-01-14T04:44:03.300Z,34.06
2017-01-14T04:44:43.928Z,34.06
2017-01-14T04:45:24.637Z,34.25
2017-01-14T04:46:05.357Z,33.96
2017-01-14T04:46:46.025Z,34.25
2017-01-14T04:47:26.651Z,34.06
2017-01-14T04:48:07.284Z,33.67
2017-01-14T04:48:47.950Z,34.15
2017-01-14T04:49:28.580Z,34.06
2017-01-14T04:50:09.317Z,33.96
2017-01-14T04:50:50.065Z,34.25
2017-01-14T04:51:30.706Z,33.86
2017-01-14T04:52:11.362Z,34.06
2017-01-14T04:52:52.087Z,33.96
2017-01-14T04:53:32.729Z,33.67
2017-01-14T04:54:13.378Z,33.86
2017-01-14T04:54:54.034Z,33.77
2017-01-14T04:55:34.712Z,33.67
2017-01-14T04:56:15.342Z,33.58
2017-01-14T04:56:56.032Z,33.48
2017-01-14T04:57:36.715Z,33.29
2017-01-14T04:58:17.356Z,33.67
2017-01-14T04:58:58.055Z,33
2017-01-14T04:59:38.714Z,33.48
2017-01-14T05:00:19.342Z,33.48
2017-01-14T05:01:00.032Z,33.48
2017-01-14T05:01:40.742Z,33.09
2017-01-14T05:02:21.448Z,33.09
2017-01-14T05:03:02.099Z,33.48
2017-01-14T05:03:42.816Z,33.09
2017-01-14T05:04:23.476Z,33.29
2017-01-14T05:05:04.112Z,33.09
2017-01-14T05:05:44.781Z,33
2017-01-14T05:06:25.489Z,33.19
2017-01-14T05:07:06.123Z,32.9
2017-01-14T05:07:46.749Z,33.29
2017-01-14T05:08:27.459Z,33.09
2017-01-14T05:09:08.110Z,33.19
2017-01-14T05:09:48.748Z,32.9
2017-01-14T05:10:29.393Z,32.81
2017-01-14T05:11:10.038Z,32.81
2017-01-14T05:11:50.679Z,32.81
2017-01-14T05:12:31.342Z,32.71
2017-01-14T05:13:12.019Z,33
2017-01-14T05:13:52.667Z,32.62
2017-01-14T05:14:33.389Z,32.71
2017-01-14T05:15:14.049Z,32.62
2017-01-14T05:15:54.676Z,32.71
2017-01-14T05:16:35.364Z,32.23
2017-01-14T05:17:15.996Z,32.42
2017-01-14T05:17:56.634Z,32.62
2017-01-14T05:18:37.321Z,33
2017-01-14T05:19:18.040Z,32.71
2017-01-14T05:19:58.700Z,32.71
2017-01-14T05:20:39.343Z,32.52
2017-01-14T05:21:20.067Z,32.14
2017-01-14T05:22:00.743Z,32.62
2017-01-14T05:22:41.369Z,32.42
2017-01-14T05:23:22.030Z,32.52
2017-01-14T05:24:02.754Z,32.62
2017-01-14T05:24:43.382Z,32.71
2017-01-14T05:25:24.092Z,32.42
2017-01-14T05:26:04.797Z,32.71
2017-01-14T05:26:45.468Z,32.23
2017-01-14T05:27:26.093Z,32.04
2017-01-14T05:28:06.795Z,32.04
2017-01-14T05:28:47.573Z,32.42
2017-01-14T05:29:28.205Z,32.04
2017-01-14T05:30:08.853Z,32.14
2017-01-14T05:30:49.568Z,32.04
2017-01-14T05:31:30.223Z,32.14
2017-01-14T05:32:10.867Z,32.14
2017-01-14T05:32:51.546Z,32.04
2017-01-14T05:33:32.202Z,31.95
2017-01-14T05:34:12.827Z,31.95
2017-01-14T05:34:53.585Z,32.04
2017-01-14T05:35:34.235Z,32.04
2017-01-14T05:36:14.866Z,31.85
2017-01-14T05:36:55.542Z,31.56
2017-01-14T05:37:36.176Z,31.66
2017-01-14T05:38:16.805Z,31.66
2017-01-14T05:38:57.505Z,31.85
2017-01-14T05:39:38.223Z,31.75
2017-01-14T05:40:18.885Z,32.14
2017-01-14T05:40:59.524Z,32.14
2017-01-14T05:41:40.176Z,31.66
2017-01-14T05:42:20.804Z,31.66
2017-01-14T05:43:01.434Z,31.37
2017-01-14T05:43:42.082Z,31.75
2017-01-14T05:44:22.833Z,31.75
2017-01-14T05:45:03.458Z,31.66
2017-01-14T05:45:44.137Z,31.56
2017-01-14T05:46:24.872Z,31.75
2017-01-14T05:47:05.497Z,31.46
2017-01-14T05:47:46.215Z,31.37
2017-01-14T05:48:26.906Z,31.37
2017-01-14T05:49:07.533Z,31.56
2017-01-14T05:49:48.161Z,31.56
2017-01-14T05:50:28.834Z,30.99
2017-01-14T05:51:09.531Z,31.66
2017-01-14T05:51:50.173Z,31.37
2017-01-14T05:52:30.864Z,31.56
2017-01-14T05:53:11.580Z,30.89
2017-01-14T05:53:52.217Z,30.99
2017-01-14T05:54:32.889Z,31.75
2017-01-14T05:55:13.608Z,30.99
2017-01-14T05:55:54.348Z,31.37
2017-01-14T05:56:34.991Z,31.46
2017-01-14T05:57:15.658Z,31.66
2017-01-14T05:57:56.405Z,31.37
2017-01-14T05:58:37.035Z,31.08
2017-01-14T05:59:17.751Z,31.08
2017-01-14T05:59:58.436Z,30.89
2017-01-14T06:00:39.067Z,30.7
2017-01-14T06:01:19.708Z,30.89
2017-01-14T06:02:00.361Z,30.79
2017-01-14T06:02:40.997Z,30.79
2017-01-14T06:03:21.629Z,30.7
2017-01-14T06:04:02.288Z,30.89
2017-01-14T06:04:42.919Z,30.89
2017-01-14T06:05:23.542Z,30.99
2017-01-14T06:06:04.199Z,31.18
2017-01-14T06:06:44.835Z,31.08
2017-01-14T06:07:25.481Z,31.18
2017-01-14T06:08:06.147Z,30.89
2017-01-14T06:08:46.824Z,31.18
2017-01-14T06:09:27.448Z,31.18
2017-01-14T06:10:08.159Z,31.08
2017-01-14T06:10:48.814Z,30.99
2017-01-14T06:11:29.443Z,30.89
2017-01-14T06:12:10.191Z,30.41
2017-01-14T06:12:50.945Z,30.51
2017-01-14T06:13:31.572Z,30.89
2017-01-14T06:14:12.215Z,30.99
2017-01-14T06:14:52.870Z,30.6
2017-01-14T06:15:33.539Z,30.79
2017-01-14T06:16:14.170Z,30.89
2017-01-14T06:16:54.869Z,30.6
2017-01-14T06:17:38.230Z,30.79
2017-01-14T06:18:18.980Z,30.89
2017-01-14T06:18:59.606Z,30.7
2017-01-14T06:19:40.259Z,30.7
2017-01-14T06:20:20.873Z,30.6
2017-01-14T06:21:01.620Z,30.79
2017-01-14T06:21:42.333Z,30.89
2017-01-14T06:22:22.966Z,30.6
2017-01-14T06:23:03.591Z,30.51
2017-01-14T06:23:44.248Z,30.51
2017-01-14T06:24:24.885Z,30.7
2017-01-14T06:25:05.531Z,30.51
2017-01-14T06:25:46.192Z,30.89
2017-01-14T06:26:26.815Z,30.79
2017-01-14T06:27:07.453Z,30.6
2017-01-14T06:27:48.201Z,30.89
2017-01-14T06:28:28.835Z,30.89
2017-01-14T06:29:09.575Z,30.41
2017-01-14T06:29:50.213Z,30.6
2017-01-14T06:30:30.899Z,30.7
2017-01-14T06:31:11.471Z,30.89
2017-01-14T06:31:52.148Z,30.41
2017-01-14T06:32:32.870Z,30.79
2017-01-14T06:33:13.513Z,30.99
2017-01-14T06:33:54.167Z,30.41
2017-01-14T06:34:34.828Z,30.41
2017-01-14T06:35:15.451Z,30.89
2017-01-14T06:35:56.110Z,30.7
2017-01-14T06:36:37.492Z,30.41
2017-01-14T06:37:18.146Z,30.6
2017-01-14T06:37:58.777Z,30.41
2017-01-14T06:38:39.404Z,30.51
2017-01-14T06:39:20.139Z,30.6
2017-01-14T06:40:00.827Z,30.51
2017-01-14T06:40:41.489Z,30.22
2017-01-14T06:41:22.131Z,30.41
2017-01-14T06:42:02.858Z,30.89
2017-01-14T06:42:43.484Z,30.89
2017-01-14T06:43:24.107Z,30.41
2017-01-14T06:44:04.819Z,30.6
2017-01-14T06:44:45.535Z,30.89
2017-01-14T06:45:26.166Z,30.6
2017-01-14T06:46:06.850Z,30.41
2017-01-14T06:46:47.554Z,30.51
2017-01-14T06:47:28.299Z,30.89
2017-01-14T06:48:08.964Z,30.22
2017-01-14T06:48:49.609Z,30.51
2017-01-14T06:49:30.241Z,30.51
2017-01-14T06:50:10.868Z,30.79
2017-01-14T06:50:51.539Z,30.22
2017-01-14T06:51:32.259Z,30.49
2017-01-14T06:52:12.887Z,30.51
2017-01-14T06:52:53.570Z,30.41
2017-01-14T06:53:34.279Z,30.6
2017-01-14T06:54:14.909Z,30.3
2017-01-14T06:54:55.573Z,30.7
2017-01-14T06:55:36.247Z,30.79
2017-01-14T06:56:16.916Z,30.7
2017-01-14T06:56:57.541Z,30.99
2017-01-14T06:57:38.257Z,30.32
2017-01-14T06:58:18.916Z,30.49
2017-01-14T06:58:59.553Z,30.51
2017-01-14T06:59:40.204Z,30.79
2017-01-14T07:00:20.934Z,30.6
2017-01-14T07:01:01.574Z,30.97
2017-01-14T07:01:42.221Z,30.6
2017-01-14T07:02:22.936Z,30.89
2017-01-14T07:03:03.587Z,30.49
2017-01-14T07:03:44.232Z,30.99
2017-01-14T07:04:24.893Z,30.89
2017-01-14T07:05:05.530Z,30.7
2017-01-14T07:05:46.159Z,30.79
2017-01-14T07:06:26.818Z,30.79
2017-01-14T07:07:07.496Z,30.6
2017-01-14T07:07:48.120Z,30.79
2017-01-14T07:08:28.834Z,30.41
2017-01-14T07:09:09.500Z,30.99
2017-01-14T07:09:50.132Z,30.51
2017-01-14T07:10:30.865Z,30.99
2017-01-14T07:11:11.592Z,30.89
2017-01-14T07:11:52.246Z,30.51
2017-01-14T07:12:32.890Z,30.41
2017-01-14T07:13:13.564Z,30.6
2017-01-14T07:13:54.225Z,30.7
2017-01-14T07:14:34.861Z,30.99
2017-01-14T07:15:15.488Z,30.79
2017-01-14T07:15:56.157Z,30.6
2017-01-14T07:16:36.803Z,30.78
2017-01-14T07:17:17.503Z,30.89
2017-01-14T07:17:58.232Z,30.99
2017-01-14T07:18:38.861Z,30.87
2017-01-14T07:19:19.595Z,30.99
2017-01-14T07:20:00.287Z,30.49
2017-01-14T07:20:40.953Z,30.49
2017-01-14T07:21:21.588Z,30.97
2017-01-14T07:22:02.268Z,30.89
2017-01-14T07:22:42.895Z,30.6
2017-01-14T07:23:23.523Z,30.89
2017-01-14T07:24:04.233Z,30.99
2017-01-14T07:24:44.935Z,30.87
2017-01-14T07:25:25.565Z,30.79
2017-01-14T07:26:06.254Z,30.49
2017-01-14T07:26:46.973Z,30.49
2017-01-14T07:27:27.629Z,30.89
2017-01-14T07:28:08.272Z,30.6
2017-01-14T07:28:48.939Z,30.6
2017-01-14T07:29:29.651Z,30.6
2017-01-14T07:30:10.282Z,30.41
2017-01-14T07:30:50.963Z,30.89
2017-01-14T07:31:31.591Z,30.41
2017-01-14T07:32:12.226Z,30.41
2017-01-14T07:32:52.881Z,30.7
2017-01-14T07:33:33.532Z,30.99
2017-01-14T07:34:14.160Z,30.99
2017-01-14T07:34:54.878Z,30.58
2017-01-14T07:35:35.508Z,30.32
2017-01-14T07:36:16.151Z,30.7
2017-01-14T07:36:56.858Z,30.6
2017-01-14T07:37:37.594Z,30.4
2017-01-14T07:38:18.325Z,30.51
2017-01-14T07:38:58.961Z,30.68
2017-01-14T07:39:39.612Z,30.7
2017-01-14T07:40:20.339Z,30.78
2017-01-14T07:41:00.970Z,30.79
2017-01-14T07:41:41.636Z,30.51
2017-01-14T07:42:22.353Z,30.7
2017-01-14T07:43:03.104Z,30.6
2017-01-14T07:43:43.750Z,30.49
2017-01-14T07:44:24.410Z,30.7
2017-01-14T07:45:05.050Z,30.58
2017-01-14T07:45:45.677Z,30.68
2017-01-14T07:46:26.352Z,30.79
2017-01-14T07:47:06.983Z,30.49
2017-01-14T07:47:47.611Z,30.41
2017-01-14T07:48:28.275Z,30.78
2017-01-14T07:49:08.900Z,30.97
2017-01-14T07:49:49.531Z,30.4
2017-01-14T07:50:30.188Z,30.4
2017-01-14T07:51:10.915Z,30.49
2017-01-14T07:51:51.542Z,30.78
2017-01-14T07:52:32.231Z,30.6
2017-01-14T07:53:12.918Z,30.49
2017-01-14T07:53:53.684Z,30.6
2017-01-14T07:54:34.332Z,30.79
2017-01-14T07:55:15.000Z,30.11
2017-01-14T07:55:55.732Z,30.02
2017-01-14T07:56:36.366Z,30.41
2017-01-14T07:57:17.014Z,30.02
2017-01-14T07:57:57.661Z,30.41
2017-01-14T07:58:38.306Z,30.41
2017-01-14T07:59:18.982Z,30.41
2017-01-14T07:59:59.702Z,30.02
2017-01-14T08:00:40.329Z,30.11
2017-01-14T08:01:20.955Z,30.22
2017-01-14T08:02:01.626Z,30.02
2017-01-14T08:02:42.342Z,30.11
2017-01-14T08:03:22.983Z,30.22
2017-01-14T08:04:03.654Z,30.11
2017-01-14T08:04:44.281Z,30.2
2017-01-14T08:05:24.905Z,30.02
2017-01-14T08:06:05.558Z,30.12
2017-01-14T08:06:46.218Z,30.32
2017-01-14T08:07:26.851Z,30.01
2017-01-14T08:08:07.568Z,30.22
2017-01-14T08:08:48.208Z,30.01
2017-01-14T08:09:28.845Z,30.3
2017-01-14T08:10:09.532Z,30.4
2017-01-14T08:10:50.247Z,30.2
2017-01-14T08:11:30.918Z,30.2
2017-01-14T08:12:11.545Z,30.01
2017-01-14T08:12:52.273Z,30.22
2017-01-14T08:13:32.942Z,30.11
2017-01-14T08:14:13.574Z,29.91
2017-01-14T08:14:54.232Z,30.02
2017-01-14T08:15:34.928Z,30.01
2017-01-14T08:16:15.559Z,30.41
2017-01-14T08:16:56.273Z,30.2
2017-01-14T08:17:37.001Z,30.11
2017-01-14T08:18:17.673Z,30.01
2017-01-14T08:18:58.311Z,30.01
2017-01-14T08:19:39.001Z,30.01
2017-01-14T08:20:19.675Z,30.11
2017-01-14T08:21:00.305Z,30.01
2017-01-14T08:21:40.963Z,30.3
2017-01-14T08:22:21.637Z,30.2
2017-01-14T08:23:02.265Z,30.01
2017-01-14T08:23:42.949Z,30.01
2017-01-14T08:24:23.634Z,30.01
2017-01-14T08:25:04.262Z,30.2
2017-01-14T08:25:44.908Z,30.01
2017-01-14T08:26:25.617Z,30.11
2017-01-14T08:27:06.368Z,30.01
2017-01-14T08:27:47.008Z,30.2
2017-01-14T08:28:27.669Z,30.12
2017-01-14T08:29:08.322Z,30.01
2017-01-14T08:29:48.960Z,30.01
2017-01-14T08:30:29.671Z,30.01
2017-01-14T08:31:10.346Z,30.11
2017-01-14T08:31:50.978Z,30.2
2017-01-14T08:32:31.677Z,30.01
2017-01-14T08:33:12.331Z,30.11
2017-01-14T08:33:52.961Z,30.22
2017-01-14T08:34:33.601Z,30.01
2017-01-14T08:35:14.313Z,30.11
2017-01-14T08:35:54.982Z,30.3
2017-01-14T08:36:35.612Z,30.3
2017-01-14T08:37:16.319Z,30.3
2017-01-14T08:37:56.951Z,30.01
2017-01-14T08:38:37.577Z,30.01
2017-01-14T08:39:18.226Z,29.91
2017-01-14T08:39:59.004Z,30.12
2017-01-14T08:40:39.627Z,30.11
2017-01-14T08:41:20.279Z,30.4
2017-01-14T08:42:01.026Z,30.2
2017-01-14T08:42:41.662Z,30.22
2017-01-14T08:43:22.310Z,30.2
2017-01-14T08:44:03.036Z,29.82
2017-01-14T08:44:43.718Z,30.11
2017-01-14T08:45:24.345Z,30.11
2017-01-14T08:46:04.997Z,29.93
2017-01-14T08:46:45.674Z,30.2